Centerville, Iowa
Current Conditions -  °F | °C
As of 12:10 PM on Thursday 29 Jan 2015 (Local Time) from KTVK Reporting Station
Overcast Overcast  
Wind Chill: 23°   Ceiling: 1600
Heat Index: 34°   Visibility: 10mi
Dew Point: 30°   Wind: 18mph
Humidity: 87%   Direction: 310°NW
Pressure: 30.25"   Gusts: 22mph
Location:  40.73°N, 92.87°W
Report Text: KTVK 291810Z AUTO 31016G19KT 10SM OVC016 01/M01 A3025 RMK AO2
Loading
Personal Weather Stations






























Interactive Weather Map New forecast layout! Learn more

10-Day Weather Forecast

Advertisements
Track Severe Weather on mobile